createdAt,value
2022-07-25T00:02:01.413Z,63.05
2022-07-25T00:04:34.367Z,63.41
2022-07-25T00:07:08.174Z,63.71
2022-07-25T00:09:40.679Z,63.71
2022-07-25T00:12:12.691Z,63.94
2022-07-25T00:14:45.157Z,63.96
2022-07-25T00:17:17.449Z,64.27
2022-07-25T00:19:49.840Z,64.28
2022-07-25T00:22:22.760Z,64.37
2022-07-25T00:24:55.715Z,64.41
2022-07-25T00:27:28.154Z,64.80
2022-07-25T00:30:00.418Z,64.73
2022-07-25T00:32:32.899Z,64.72
2022-07-25T00:35:05.613Z,64.94
2022-07-25T00:37:37.616Z,64.95
2022-07-25T00:40:10.718Z,65.16
2022-07-25T00:42:42.783Z,65.18
2022-07-25T00:45:14.852Z,65.46
2022-07-25T00:47:47.103Z,65.60
2022-07-25T00:50:19.298Z,65.71
2022-07-25T00:52:51.583Z,65.87
2022-07-25T00:55:26.271Z,66.08
2022-07-25T00:57:58.352Z,66.33
2022-07-25T01:00:30.372Z,66.32
2022-07-25T01:03:02.916Z,66.53
2022-07-25T01:05:35.435Z,66.57
2022-07-25T01:08:08.298Z,66.65
2022-07-25T01:10:40.994Z,66.56
2022-07-25T01:13:13.673Z,66.38
2022-07-25T01:15:45.692Z,66.54
2022-07-25T01:18:19.313Z,67.43
2022-07-25T01:20:51.512Z,67.16
2022-07-25T01:23:23.508Z,67.13
2022-07-25T01:25:55.752Z,66.61
2022-07-25T01:28:27.928Z,66.53
2022-07-25T01:31:00.354Z,66.47
2022-07-25T01:33:32.579Z,66.25
2022-07-25T01:36:05.063Z,66.20
2022-07-25T01:38:37.078Z,66.04
2022-07-25T01:41:09.254Z,66.34
2022-07-25T01:43:41.509Z,66.48
2022-07-25T01:46:13.639Z,66.34
2022-07-25T01:48:46.396Z,66.28
2022-07-25T01:51:19.891Z,66.39
2022-07-25T01:53:53.336Z,66.39
2022-07-25T01:56:25.775Z,66.68
2022-07-25T01:58:57.971Z,66.47
2022-07-25T02:01:31.279Z,66.36
2022-07-25T02:04:03.742Z,66.23
2022-07-25T02:06:36.022Z,65.90
2022-07-25T02:09:08.934Z,65.86
2022-07-25T02:11:41.990Z,66.03
2022-07-25T02:14:14.524Z,65.77
2022-07-25T02:16:46.849Z,65.48
2022-07-25T02:19:18.913Z,65.48
2022-07-25T02:21:51.102Z,65.22
2022-07-25T02:24:23.171Z,65.17
2022-07-25T02:26:55.341Z,64.73
2022-07-25T02:29:27.744Z,64.55
2022-07-25T02:32:00.475Z,64.92
2022-07-25T02:34:32.759Z,64.57
2022-07-25T02:37:04.928Z,64.59
2022-07-25T02:39:37.004Z,64.48
2022-07-25T02:42:09.390Z,64.06
2022-07-25T02:44:41.667Z,64.11
2022-07-25T02:47:13.875Z,63.95
2022-07-25T02:49:45.943Z,63.78
2022-07-25T02:52:18.163Z,63.57
2022-07-25T02:54:50.906Z,63.54
2022-07-25T02:57:23.264Z,63.37
2022-07-25T02:59:55.776Z,63.26
2022-07-25T03:02:28.350Z,63.39
2022-07-25T03:05:00.412Z,63.40
2022-07-25T03:07:33.242Z,63.38
2022-07-25T03:10:08.759Z,63.40
2022-07-25T03:12:43.162Z,63.39
2022-07-25T03:15:15.666Z,63.42
2022-07-25T03:17:47.596Z,63.42
2022-07-25T03:20:19.769Z,63.43
2022-07-25T03:22:52.044Z,63.04
2022-07-25T03:25:24.364Z,62.95
2022-07-25T03:27:56.685Z,62.84
2022-07-25T03:30:29.329Z,62.67
2022-07-25T03:33:01.509Z,62.69
2022-07-25T03:35:33.664Z,62.66
2022-07-25T03:38:07.835Z,62.65
2022-07-25T03:40:40.822Z,62.19
2022-07-25T03:43:13.004Z,62.19
2022-07-25T03:45:45.131Z,62.27
2022-07-25T03:48:17.237Z,62.10
2022-07-25T03:50:49.592Z,61.98
2022-07-25T03:53:22.657Z,62.16
2022-07-25T03:58:25.455Z,61.29
2022-07-25T04:00:58.923Z,61.27
2022-07-25T04:03:31.715Z,60.97
2022-07-25T04:06:03.753Z,60.64
2022-07-25T04:08:36.130Z,60.50
2022-07-25T04:11:08.594Z,60.33
2022-07-25T04:13:40.729Z,60.44
2022-07-25T04:16:16.873Z,60.36
2022-07-25T04:18:47.097Z,60.49
2022-07-25T04:21:22.179Z,60.63
2022-07-25T04:23:54.744Z,60.66
2022-07-25T04:26:26.733Z,60.68
2022-07-25T04:28:59.271Z,60.53
2022-07-25T04:31:32.793Z,60.74
2022-07-25T04:34:05.287Z,60.80
2022-07-25T04:36:37.836Z,60.80
2022-07-25T04:39:10.202Z,60.89
2022-07-25T04:41:42.556Z,60.75
2022-07-25T04:44:15.233Z,60.72
2022-07-25T04:46:47.242Z,60.23
2022-07-25T04:49:19.564Z,60.13
2022-07-25T04:51:51.691Z,59.78
2022-07-25T04:54:24.247Z,59.57
2022-07-25T04:56:56.599Z,59.17
2022-07-25T04:59:28.986Z,58.69
2022-07-25T05:02:02.665Z,58.60
2022-07-25T05:04:35.481Z,58.11
2022-07-25T05:07:09.190Z,58.12
2022-07-25T05:09:41.994Z,57.64
2022-07-25T05:12:14.875Z,57.14
2022-07-25T05:14:47.771Z,56.85
2022-07-25T05:17:20.645Z,56.66
2022-07-25T05:19:53.490Z,56.23
2022-07-25T05:22:28.581Z,55.06
2022-07-25T05:25:02.292Z,54.54
2022-07-25T05:27:35.462Z,53.76
2022-07-25T05:30:11.174Z,53.48
2022-07-25T05:32:44.974Z,52.94
2022-07-25T05:35:17.851Z,52.88
2022-07-25T05:37:50.134Z,52.29
2022-07-25T05:40:24.507Z,51.37
2022-07-25T05:43:02.552Z,49.80
2022-07-25T05:45:33.095Z,48.99
2022-07-25T05:48:05.596Z,48.30
2022-07-25T05:50:41.576Z,47.86
2022-07-25T05:53:15.374Z,47.21
2022-07-25T05:55:47.891Z,46.70
2022-07-25T05:58:20.585Z,46.09
2022-07-25T06:00:53.343Z,44.41
2022-07-25T06:03:25.648Z,44.87
2022-07-25T06:05:58.048Z,44.74
2022-07-25T06:08:31.055Z,44.51
2022-07-25T06:11:05.406Z,44.21
2022-07-25T06:13:39.743Z,44.14
2022-07-25T06:16:13.016Z,44.47
2022-07-25T06:18:45.711Z,44.58
2022-07-25T06:21:18.111Z,45.19
2022-07-25T06:23:50.556Z,45.77
2022-07-25T06:26:24.788Z,46.00
2022-07-25T06:28:57.802Z,46.52
2022-07-25T06:31:30.508Z,46.35
2022-07-25T06:34:03.238Z,46.53
2022-07-25T06:36:36.046Z,46.35
2022-07-25T06:39:08.418Z,46.12
2022-07-25T06:41:40.559Z,46.13
2022-07-25T06:44:12.839Z,46.29
2022-07-25T06:46:45.100Z,47.05
2022-07-25T06:49:17.694Z,46.62
2022-07-25T06:51:50.528Z,46.12
2022-07-25T06:54:22.669Z,44.95
2022-07-25T06:56:55.425Z,44.44
2022-07-25T06:59:28.225Z,43.19
2022-07-25T07:02:01.179Z,43.14
2022-07-25T07:04:33.624Z,42.42
2022-07-25T07:07:05.712Z,42.29
2022-07-25T07:09:38.381Z,42.25
2022-07-25T07:12:11.898Z,42.29
2022-07-25T07:14:47.631Z,41.27
2022-07-25T07:17:19.602Z,41.70
2022-07-25T07:19:51.997Z,41.27
2022-07-25T07:22:24.813Z,40.32
2022-07-25T07:24:57.234Z,40.54
2022-07-25T07:27:29.684Z,40.54
2022-07-25T07:30:02.571Z,40.78
2022-07-25T07:32:34.627Z,40.87
2022-07-25T07:35:08.260Z,40.93
2022-07-25T07:37:43.798Z,40.58
2022-07-25T07:40:18.054Z,40.21
2022-07-25T07:42:51.591Z,40.22
2022-07-25T07:45:26.317Z,40.45
2022-07-25T07:47:57.773Z,41.24
2022-07-25T07:50:30.227Z,40.86
2022-07-25T07:53:03.316Z,42.41
2022-07-25T07:55:46.741Z,42.53
2022-07-25T07:58:22.267Z,42.74
2022-07-25T08:00:54.666Z,42.18
2022-07-25T08:03:27.928Z,43.22
2022-07-25T08:06:00.637Z,43.78
2022-07-25T08:08:33.853Z,44.06
2022-07-25T08:11:06.199Z,42.47
2022-07-25T08:13:38.547Z,42.05
2022-07-25T08:16:12.089Z,42.15
2022-07-25T08:18:44.610Z,42.54
2022-07-25T08:21:17.657Z,42.72
2022-07-25T08:23:49.894Z,43.03
2022-07-25T08:26:22.071Z,42.78
2022-07-25T08:29:17.228Z,42.85
2022-07-25T08:31:29.565Z,42.61
2022-07-25T08:34:02.013Z,42.45
2022-07-25T08:36:35.567Z,41.79
2022-07-25T08:39:08.368Z,41.65
2022-07-25T08:41:42.695Z,41.12
2022-07-25T08:44:17.887Z,41.34
2022-07-25T08:46:52.058Z,41.11
2022-07-25T08:49:25.441Z,40.67
2022-07-25T08:51:58.266Z,40.45
2022-07-25T08:54:32.251Z,40.13
2022-07-25T08:57:06.711Z,40.19
2022-07-25T08:59:39.246Z,39.57
2022-07-25T09:02:16.398Z,38.88
2022-07-25T09:04:49.048Z,39.24
2022-07-25T09:07:36.221Z,39.80
2022-07-25T09:10:20.596Z,39.66
2022-07-25T09:13:02.294Z,39.50
2022-07-25T09:15:40.570Z,39.73
2022-07-25T09:18:15.983Z,38.68
2022-07-25T09:21:00.436Z,38.37
2022-07-25T09:23:38.528Z,38.06
2022-07-25T09:26:14.306Z,37.51
2022-07-25T09:28:51.321Z,37.59
2022-07-25T09:31:25.276Z,37.96
2022-07-25T09:33:59.141Z,38.53
2022-07-25T09:36:31.065Z,39.05
2022-07-25T09:39:05.850Z,38.63
2022-07-25T09:41:39.979Z,39.88
2022-07-25T09:44:23.817Z,40.00
2022-07-25T09:46:57.141Z,39.95
2022-07-25T09:49:44.820Z,39.96
2022-07-25T09:52:18.023Z,39.82
2022-07-25T09:54:50.991Z,40.03
2022-07-25T09:57:26.185Z,40.80
2022-07-25T10:00:01.684Z,41.09
2022-07-25T10:02:58.206Z,41.93
2022-07-25T10:06:03.786Z,42.85
2022-07-25T10:08:42.089Z,43.68
2022-07-25T10:11:28.496Z,43.43
2022-07-25T10:14:03.783Z,43.01
2022-07-25T10:16:39.547Z,43.15
2022-07-25T10:19:11.845Z,42.09
2022-07-25T10:21:45.815Z,42.35
2022-07-25T10:24:18.902Z,41.82
2022-07-25T10:26:54.696Z,41.81
2022-07-25T10:29:29.904Z,41.40
2022-07-25T10:32:10.377Z,41.59
2022-07-25T10:34:44.234Z,41.59
2022-07-25T10:37:21.511Z,40.75
2022-07-25T10:39:54.342Z,40.47
2022-07-25T10:42:27.212Z,40.54
2022-07-25T10:45:01.240Z,40.28
2022-07-25T10:47:40.463Z,39.96
2022-07-25T10:50:25.543Z,39.83
2022-07-25T10:52:49.100Z,39.88
2022-07-25T10:55:25.091Z,39.89
2022-07-25T10:58:17.593Z,40.38
2022-07-25T11:00:47.447Z,40.12
2022-07-25T11:03:21.315Z,40.27
2022-07-25T11:05:54.868Z,40.46
2022-07-25T11:08:36.013Z,39.89
2022-07-25T11:11:09.049Z,39.76
2022-07-25T11:13:44.488Z,39.25
2022-07-25T11:16:16.813Z,38.64
2022-07-25T11:18:50.040Z,38.44
2022-07-25T11:21:22.642Z,38.01
2022-07-25T11:23:55.153Z,36.88
2022-07-25T11:26:27.683Z,35.47
2022-07-25T11:28:59.904Z,34.03
2022-07-25T11:31:33.098Z,34.06
2022-07-25T11:34:05.182Z,34.34
2022-07-25T11:36:37.263Z,34.89
2022-07-25T11:39:12.329Z,35.13
2022-07-25T11:41:43.360Z,35.60
2022-07-25T11:44:15.277Z,35.53
2022-07-25T11:46:47.873Z,34.70
2022-07-25T11:49:20.144Z,34.36
2022-07-25T11:51:52.632Z,33.44
2022-07-25T11:54:25.150Z,32.21
2022-07-25T11:56:57.516Z,30.84
2022-07-25T11:59:29.788Z,28.54
2022-07-25T12:02:02.156Z,28.05
2022-07-25T12:04:34.464Z,27.67
2022-07-25T12:07:07.210Z,25.65
2022-07-25T12:09:39.210Z,23.29
2022-07-25T12:12:11.459Z,21.46
2022-07-25T12:14:46.507Z,20.12
2022-07-25T12:17:18.644Z,19.16
2022-07-25T12:19:50.891Z,19.71
2022-07-25T12:22:23.152Z,19.02
2022-07-25T12:24:55.100Z,18.97
2022-07-25T12:27:27.210Z,20.39
2022-07-25T12:29:59.238Z,21.95
2022-07-25T12:32:33.098Z,23.76
2022-07-25T12:35:07.999Z,25.34
2022-07-25T12:37:41.644Z,26.86
2022-07-25T12:40:15.665Z,27.89
2022-07-25T12:42:49.867Z,27.44
2022-07-25T12:45:23.179Z,27.37
2022-07-25T12:47:56.560Z,25.79
2022-07-25T12:50:29.968Z,23.79
2022-07-25T12:53:03.217Z,21.14
2022-07-25T12:55:35.974Z,18.84
2022-07-25T12:58:09.415Z,17.31
2022-07-25T13:00:41.717Z,15.72
2022-07-25T13:03:15.335Z,14.61
2022-07-25T13:05:47.520Z,13.41
2022-07-25T13:08:19.959Z,14.09
2022-07-25T13:10:52.272Z,14.18
2022-07-25T13:13:25.269Z,14.03
2022-07-25T13:15:57.765Z,14.47
2022-07-25T13:18:30.604Z,15.59
2022-07-25T13:21:03.723Z,15.59
2022-07-25T13:23:35.771Z,15.30
2022-07-25T13:26:08.831Z,16.62
2022-07-25T13:28:41.339Z,18.32
2022-07-25T13:31:13.692Z,19.44
2022-07-25T13:33:46.085Z,19.18
2022-07-25T13:36:20.317Z,19.10
2022-07-25T13:38:52.775Z,20.18
2022-07-25T13:41:26.188Z,21.95
2022-07-25T13:43:58.275Z,21.58
2022-07-25T13:46:30.285Z,20.19
2022-07-25T13:49:02.552Z,19.04
2022-07-25T13:51:34.854Z,17.86
2022-07-25T13:54:07.181Z,16.85
2022-07-25T13:56:40.661Z,16.83
2022-07-25T13:59:18.798Z,15.93
2022-07-25T14:01:47.704Z,15.15
2022-07-25T14:04:20.080Z,15.49
2022-07-25T14:06:52.503Z,15.15
2022-07-25T14:09:24.639Z,14.45
2022-07-25T14:11:56.793Z,14.09
2022-07-25T14:14:29.010Z,13.64
2022-07-25T14:17:01.807Z,13.43
2022-07-25T14:19:34.264Z,13.25
2022-07-25T14:22:07.158Z,13.70
2022-07-25T14:24:40.031Z,13.96
2022-07-25T14:27:12.692Z,14.39
2022-07-25T14:29:45.160Z,14.40
2022-07-25T14:32:17.636Z,14.21
2022-07-25T14:34:51.212Z,13.96
2022-07-25T14:37:24.151Z,14.25
2022-07-25T14:39:56.743Z,14.09
2022-07-25T14:42:29.826Z,14.92
2022-07-25T14:45:02.158Z,15.48
2022-07-25T14:47:35.035Z,15.48
2022-07-25T14:50:08.044Z,15.46
2022-07-25T14:52:40.557Z,15.20
2022-07-25T14:55:13.000Z,15.72
2022-07-25T14:57:46.607Z,16.57
2022-07-25T15:00:19.009Z,16.95
2022-07-25T15:02:51.197Z,16.99
2022-07-25T15:05:23.349Z,16.62
2022-07-25T15:07:55.678Z,16.69
2022-07-25T15:10:27.996Z,18.05
2022-07-25T15:13:28.227Z,19.63
2022-07-25T15:15:36.076Z,19.81
2022-07-25T15:18:13.406Z,19.08
2022-07-25T15:20:43.469Z,18.49
2022-07-25T15:23:15.962Z,17.86
2022-07-25T15:26:04.940Z,18.08
2022-07-25T15:28:23.718Z,18.53
2022-07-25T15:30:56.537Z,19.76
2022-07-25T15:33:29.708Z,21.26
2022-07-25T15:36:01.994Z,23.10
2022-07-25T15:38:34.040Z,24.73
2022-07-25T15:41:06.432Z,26.23
2022-07-25T15:43:39.546Z,27.00
2022-07-25T15:46:14.201Z,27.78
2022-07-25T15:48:47.843Z,28.62
2022-07-25T15:51:20.752Z,29.38
2022-07-25T15:53:53.047Z,29.75
2022-07-25T15:56:25.882Z,30.21
2022-07-25T15:58:58.085Z,30.62
2022-07-25T16:01:31.240Z,31.62
2022-07-25T16:04:03.778Z,36.27
2022-07-25T16:06:36.719Z,36.74
2022-07-25T16:09:11.078Z,36.57
2022-07-25T16:11:44.245Z,39.14
2022-07-25T16:14:17.003Z,41.91
2022-07-25T16:16:49.718Z,45.12
2022-07-25T16:19:22.411Z,44.47
2022-07-25T16:21:56.604Z,46.79
2022-07-25T16:24:29.159Z,48.54
2022-07-25T16:27:01.343Z,48.67
2022-07-25T16:29:33.558Z,51.15
2022-07-25T16:32:07.019Z,54.01
2022-07-25T16:34:39.598Z,56.57
2022-07-25T16:37:11.908Z,56.99
2022-07-25T16:39:44.135Z,59.41
2022-07-25T16:42:17.255Z,60.35
2022-07-25T16:44:49.978Z,61.32
2022-07-25T16:47:22.063Z,61.40
2022-07-25T16:49:54.506Z,61.19
2022-07-25T16:52:26.872Z,62.91
2022-07-25T16:54:59.595Z,65.68
2022-07-25T16:57:33.596Z,66.93
2022-07-25T17:00:09.411Z,67.82
2022-07-25T17:02:45.395Z,69.01
2022-07-25T17:05:18.661Z,69.52
2022-07-25T17:07:58.936Z,68.74
2022-07-25T17:10:27.612Z,67.95
2022-07-25T17:13:00.161Z,67.25
2022-07-25T17:15:32.521Z,67.27
2022-07-25T17:18:06.311Z,71.42
2022-07-25T17:20:38.939Z,73.27
2022-07-25T17:23:11.264Z,71.25
2022-07-25T17:25:48.624Z,69.86
2022-07-25T17:28:18.013Z,71.00
2022-07-25T17:30:50.746Z,72.16
2022-07-25T17:33:23.101Z,69.92
2022-07-25T17:35:55.464Z,70.79
2022-07-25T17:38:31.594Z,72.12
2022-07-25T17:41:01.954Z,71.94
2022-07-25T17:43:34.198Z,72.12
2022-07-25T17:46:07.452Z,73.40
2022-07-25T17:48:39.820Z,73.06
2022-07-25T17:51:12.055Z,72.62
2022-07-25T17:53:44.430Z,73.29
2022-07-25T17:56:16.990Z,74.62
2022-07-25T17:58:49.210Z,74.42
2022-07-25T18:01:21.861Z,74.60
2022-07-25T18:03:53.988Z,75.34
2022-07-25T18:06:29.699Z,75.38
2022-07-25T18:09:00.428Z,75.57
2022-07-25T18:11:32.880Z,76.18
2022-07-25T18:14:05.814Z,75.97
2022-07-25T18:16:38.432Z,76.60
2022-07-25T18:19:11.778Z,76.51
2022-07-25T18:21:45.211Z,77.11
2022-07-25T18:24:17.805Z,76.53
2022-07-25T18:26:50.353Z,76.49
2022-07-25T18:29:22.426Z,77.09
2022-07-25T18:31:55.476Z,77.19
2022-07-25T18:34:27.881Z,77.11
2022-07-25T18:37:00.092Z,75.98
2022-07-25T18:39:32.434Z,75.68
2022-07-25T18:42:04.631Z,76.25
2022-07-25T18:44:37.547Z,75.65
2022-07-25T18:47:09.777Z,76.36
2022-07-25T18:49:42.216Z,75.86
2022-07-25T18:52:14.370Z,76.77
2022-07-25T18:54:46.588Z,76.59
2022-07-25T18:57:18.654Z,76.99
2022-07-25T18:59:50.963Z,76.74
2022-07-25T19:02:23.609Z,76.29
2022-07-25T19:04:56.221Z,77.72
2022-07-25T19:07:30.166Z,77.83
2022-07-25T19:10:03.261Z,77.77
2022-07-25T19:12:35.437Z,77.12
2022-07-25T19:15:08.746Z,77.00
2022-07-25T19:17:41.491Z,76.66
2022-07-25T19:20:14.240Z,76.86
2022-07-25T19:22:46.235Z,76.90
2022-07-25T19:25:19.250Z,76.58
2022-07-25T19:27:51.662Z,76.31
2022-07-25T19:30:24.044Z,76.05
2022-07-25T19:32:56.025Z,75.65
2022-07-25T19:35:28.339Z,75.91
2022-07-25T19:38:00.456Z,76.34
2022-07-25T19:40:34.691Z,76.17
2022-07-25T19:43:06.674Z,76.41
2022-07-25T19:45:39.552Z,76.71
2022-07-25T19:48:11.879Z,76.68
2022-07-25T19:50:44.311Z,76.01
2022-07-25T19:53:16.457Z,76.58
2022-07-25T19:55:49.412Z,77.04
2022-07-25T19:58:21.450Z,75.76
2022-07-25T20:00:53.461Z,75.40
2022-07-25T20:03:25.507Z,74.67
2022-07-25T20:05:57.829Z,73.76
2022-07-25T20:08:29.811Z,72.98
2022-07-25T20:11:01.932Z,73.24
2022-07-25T20:13:34.075Z,73.33
2022-07-25T20:16:06.518Z,73.12
2022-07-25T20:18:38.869Z,72.40
2022-07-25T20:21:12.736Z,71.42
2022-07-25T20:23:45.500Z,71.39
2022-07-25T20:26:17.644Z,71.29
2022-07-25T20:28:49.953Z,71.18
2022-07-25T20:31:24.538Z,71.44
2022-07-25T20:33:55.853Z,71.26
2022-07-25T20:36:27.594Z,69.41
2022-07-25T20:38:59.841Z,70.87
2022-07-25T20:41:32.985Z,71.23
2022-07-25T20:44:05.890Z,70.82
2022-07-25T20:46:39.155Z,70.89
2022-07-25T20:49:13.533Z,71.08
2022-07-25T20:51:47.874Z,70.83
2022-07-25T20:54:19.448Z,71.31
2022-07-25T20:56:51.537Z,70.86
2022-07-25T20:59:23.945Z,71.27
2022-07-25T21:01:56.387Z,71.54
2022-07-25T21:04:28.469Z,71.35
2022-07-25T21:07:00.474Z,71.40
2022-07-25T21:09:32.893Z,71.71
2022-07-25T21:12:05.079Z,71.68
2022-07-25T21:14:37.563Z,71.75
2022-07-25T21:17:09.758Z,71.63
2022-07-25T21:19:41.918Z,71.91
2022-07-25T21:22:14.086Z,71.58
2022-07-25T21:24:46.414Z,72.38
2022-07-25T21:27:19.364Z,72.39
2022-07-25T21:29:51.562Z,72.34
2022-07-25T21:32:23.695Z,72.30
2022-07-25T21:34:55.687Z,72.23
2022-07-25T21:37:28.000Z,72.61
2022-07-25T21:40:00.239Z,72.48
2022-07-25T21:42:34.451Z,72.82
2022-07-25T21:45:07.368Z,73.09
2022-07-25T21:47:39.459Z,72.91
2022-07-25T21:50:29.743Z,72.62
2022-07-25T21:53:02.212Z,72.81
2022-07-25T21:55:34.507Z,72.86
2022-07-25T21:58:07.225Z,73.00
2022-07-25T22:00:45.262Z,73.15
2022-07-25T22:03:13.247Z,73.48
2022-07-25T22:05:45.259Z,73.54
2022-07-25T22:08:17.518Z,73.51
2022-07-25T22:10:49.572Z,73.79
2022-07-25T22:13:21.647Z,74.08
2022-07-25T22:15:53.643Z,74.42
2022-07-25T22:18:25.645Z,74.67
2022-07-25T22:20:59.703Z,74.55
2022-07-25T22:23:31.798Z,74.78
2022-07-25T22:26:03.849Z,74.59
2022-07-25T22:28:36.234Z,74.70
2022-07-25T22:31:09.380Z,74.65
2022-07-25T22:33:41.827Z,74.78
2022-07-25T22:36:13.963Z,75.18
2022-07-25T22:38:46.246Z,75.65
2022-07-25T22:41:18.437Z,75.76
2022-07-25T22:43:57.951Z,76.09
2022-07-25T22:46:24.303Z,75.93
2022-07-25T22:48:56.699Z,75.79
2022-07-25T22:51:29.780Z,75.90
2022-07-25T22:54:02.598Z,75.74
2022-07-25T22:56:34.890Z,75.82
2022-07-25T22:59:07.171Z,76.19
2022-07-25T23:01:39.566Z,76.34
2022-07-25T23:04:11.736Z,76.62
2022-07-25T23:06:43.906Z,76.83
2022-07-25T23:09:16.207Z,77.04
2022-07-25T23:11:48.565Z,76.99
2022-07-25T23:14:20.717Z,77.09
2022-07-25T23:16:54.520Z,77.36
2022-07-25T23:19:26.773Z,77.28
2022-07-25T23:21:58.781Z,77.07
2022-07-25T23:24:34.382Z,77.33
2022-07-25T23:27:05.200Z,77.34
2022-07-25T23:29:37.167Z,77.31
2022-07-25T23:32:09.800Z,77.51
2022-07-25T23:34:41.878Z,77.53
2022-07-25T23:37:13.985Z,77.65
2022-07-25T23:39:45.979Z,77.74
2022-07-25T23:42:18.119Z,77.87
2022-07-25T23:44:50.227Z,78.11
2022-07-25T23:47:39.080Z,78.28
2022-07-25T23:49:57.625Z,78.24
2022-07-25T23:52:29.758Z,78.42
2022-07-25T23:55:01.954Z,78.50
2022-07-25T23:57:33.923Z,78.57
